Time;durP1;ratioP1;P1;durP2;ratioP2;P2;SDS_P1;SDS_P2;PMS_P1;PMS_P2;Temp;Humidity;BMP_temperature;BMP_pressure;BME280_temperature;BME280_humidity;BME280_pressure;Samples;Min_cycle;Max_cycle;Signal;HPM_P1;HPM_P2
2022/03/09 00:00:00;;;;;;;24.27;22.40;;;;;;;-0.28;76.94;102543.81;5053883;28;20427;-45
2022/03/09 00:02:28;;;;;;;25.37;23.00;;;;;;;-0.31;77.17;102540.50;5053639;28;20455;-44
2022/03/09 00:04:56;;;;;;;23.83;21.90;;;;;;;-0.36;77.47;102542.56;5053638;28;20479;-44
2022/03/09 00:07:24;;;;;;;22.93;21.23;;;;;;;-0.41;77.21;102542.78;5053002;28;20435;-43
2022/03/09 00:09:51;;;;;;;21.70;20.00;;;;;;;-0.48;77.84;102544.06;5053409;28;20427;-44
2022/03/09 00:12:20;;;;;;;24.77;22.67;;;;;;;-0.52;78.54;102552.16;5053286;28;20469;-46
2022/03/09 00:14:48;;;;;;;23.13;21.23;;;;;;;-0.59;78.27;102555.09;5053580;28;20436;-44
2022/03/09 00:17:16;;;;;;;22.67;20.90;;;;;;;-0.63;78.51;102558.78;5052772;28;20431;-45
2022/03/09 00:19:43;;;;;;;23.93;22.23;;;;;;;-0.66;78.90;102566.81;5053274;28;20953;-42
2022/03/09 00:22:11;;;;;;;22.73;21.13;;;;;;;-0.67;78.83;102561.66;5053253;28;20546;-43
2022/03/09 00:24:39;;;;;;;23.30;21.67;;;;;;;-0.68;79.46;102567.81;5053045;28;20475;-42
2022/03/09 00:27:06;;;;;;;22.90;21.20;;;;;;;-0.67;79.72;102570.38;5053415;28;20435;-43
2022/03/09 00:29:37;;;;;;;25.10;23.03;;;;;;;-0.65;79.93;102571.13;5052925;28;20534;-44
2022/03/09 00:32:06;;;;;;;23.90;22.40;;;;;;;-0.60;80.41;102568.28;5053202;28;20551;-43
2022/03/09 00:34:34;;;;;;;25.47;23.77;;;;;;;-0.54;80.64;102577.59;5053070;28;20439;-44
2022/03/09 00:37:03;;;;;;;26.63;24.63;;;;;;;-0.48;81.45;102579.91;5053038;28;20435;-43
2022/03/09 00:39:30;;;;;;;26.13;24.40;;;;;;;-0.42;81.33;102576.94;5052298;28;20471;-45
2022/03/09 00:41:58;;;;;;;27.80;25.80;;;;;;;-0.31;81.73;102579.84;5052941;28;20455;-44
2022/03/09 00:44:26;;;;;;;27.83;26.13;;;;;;;-0.24;82.08;102578.59;5052786;28;20944;-43
2022/03/09 00:46:55;;;;;;;29.43;27.47;;;;;;;-0.18;82.28;102583.50;5044154;28;20459;-44
2022/03/09 00:49:22;;;;;;;28.60;26.40;;;;;;;-0.18;82.49;102576.47;5051876;28;20851;-43
2022/03/09 00:51:50;;;;;;;28.93;27.03;;;;;;;-0.18;82.43;102581.69;5052632;28;20455;-43
2022/03/09 00:54:18;;;;;;;27.03;25.10;;;;;;;-0.16;83.03;102587.72;5052620;28;20441;-44
2022/03/09 00:56:46;;;;;;;30.13;27.93;;;;;;;-0.12;82.93;102577.94;5052698;28;20523;-43
2022/03/09 00:59:14;;;;;;;30.20;27.87;;;;;;;-0.12;83.42;102576.13;5051841;28;20467;-43
2022/03/09 01:01:41;;;;;;;29.23;27.27;;;;;;;-0.10;83.63;102576.06;5052452;28;20538;-48
2022/03/09 01:04:11;;;;;;;29.97;27.53;;;;;;;-0.12;83.36;102567.44;5052303;28;20478;-44
2022/03/09 01:06:40;;;;;;;28.63;26.73;;;;;;;-0.11;83.93;102562.09;5052671;28;20873;-43
2022/03/09 01:09:08;;;;;;;31.43;29.07;;;;;;;-0.11;84.38;102571.75;5051665;28;20459;-43
2022/03/09 01:11:37;;;;;;;29.33;27.53;;;;;;;-0.17;83.50;102570.28;5067962;22;20479;-42
2022/03/09 01:14:04;;;;;;;28.47;26.57;;;;;;;-0.21;84.24;102575.81;5044438;28;20424;-44
2022/03/09 01:16:32;;;;;;;30.47;28.37;;;;;;;-0.26;84.48;102568.16;5032266;28;20436;-44
2022/03/09 01:19:00;;;;;;;30.57;28.57;;;;;;;-0.30;85.19;102571.88;5031707;28;20464;-48
2022/03/09 01:21:29;;;;;;;28.50;26.70;;;;;;;-0.32;85.76;102565.88;5032174;28;20448;-45
2022/03/09 01:23:57;;;;;;;29.27;27.43;;;;;;;-0.32;86.25;102570.28;5032194;28;20433;-48
2022/03/09 01:26:26;;;;;;;29.37;27.47;;;;;;;-0.34;86.59;102567.75;5031836;28;20446;-46
2022/03/09 01:28:53;;;;;;;29.00;27.10;;;;;;;-0.37;86.53;102567.91;5031531;28;20551;-44
2022/03/09 01:31:21;;;;;;;30.50;28.50;;;;;;;-0.37;86.69;102572.31;5031968;28;20527;-45
2022/03/09 01:33:49;;;;;;;28.97;26.83;;;;;;;-0.39;87.63;102563.69;5032278;28;20443;-45
2022/03/09 01:36:16;;;;;;;28.53;26.83;;;;;;;-0.38;87.49;102566.22;5032363;28;20518;-49
2022/03/09 01:38:49;;;;;;;31.60;29.50;;;;;;;-0.35;88.28;102563.41;5031503;28;20464;-45
2022/03/09 01:41:17;;;;;;;30.43;27.97;;;;;;;-0.34;88.24;102559.88;5032220;28;20527;-49
2022/03/09 01:43:44;;;;;;;30.83;28.50;;;;;;;-0.32;89.08;102555.41;5032445;28;20530;-45
2022/03/09 01:46:12;;;;;;;28.63;26.77;;;;;;;-0.29;89.19;102551.75;5042885;28;20477;-44
2022/03/09 01:48:40;;;;;;;31.10;29.10;;;;;;;-0.28;89.25;102553.47;5031372;28;20546;-45
2022/03/09 01:51:07;;;;;;;30.77;28.80;;;;;;;-0.27;89.64;102550.75;5032056;28;20432;-45
2022/03/09 01:53:37;;;;;;;29.23;27.27;;;;;;;-0.25;89.67;102550.66;5031855;28;20450;-44
2022/03/09 01:56:06;;;;;;;31.00;28.20;;;;;;;-0.29;89.05;102543.88;5031665;28;20515;-44
2022/03/09 01:58:34;;;;;;;30.03;28.03;;;;;;;-0.37;88.40;102540.84;5031112;28;20470;-48
2022/03/09 02:01:02;;;;;;;30.53;28.27;;;;;;;-0.45;88.41;102535.19;5031792;28;20530;-45
2022/03/09 02:03:30;;;;;;;29.80;27.57;;;;;;;-0.56;88.66;102536.59;5031987;28;20436;-47
2022/03/09 02:05:59;;;;;;;27.80;26.00;;;;;;;-0.67;88.32;102536.31;5031542;28;20511;-44
2022/03/09 02:11:15;;;;;;;28.10;26.30;;;;;;;-0.84;88.38;102538.97;5031379;28;20424;-44
2022/03/09 02:13:43;;;;;;;28.17;26.10;;;;;;;-0.89;88.13;102540.13;5031888;28;20424;-46
2022/03/09 02:16:14;;;;;;;28.27;26.37;;;;;;;-0.94;88.05;102536.91;5031803;28;20436;-46
2022/03/09 02:18:42;;;;;;;29.20;26.83;;;;;;;-0.99;87.57;102536.28;5031004;28;20551;-46
2022/03/09 02:21:12;;;;;;;27.20;25.27;;;;;;;-1.03;87.72;102535.59;5031567;28;20539;-50
2022/03/09 02:23:41;;;;;;;28.03;26.13;;;;;;;-1.06;88.22;102537.53;5031667;28;20852;-44
2022/03/09 02:26:08;;;;;;;30.53;28.03;;;;;;;-1.08;88.61;102536.78;5031676;28;20482;-44
2022/03/09 02:28:38;;;;;;;30.07;27.90;;;;;;;-1.03;89.52;102532.97;5030906;28;20470;-45
2022/03/09 02:31:06;;;;;;;30.40;27.90;;;;;;;-0.96;90.03;102536.13;5031249;28;20512;-46
2022/03/09 02:33:33;;;;;;;28.57;26.57;;;;;;;-0.91;89.56;102539.34;5031610;28;20440;-47
2022/03/09 02:36:02;;;;;;;29.00;26.83;;;;;;;-0.90;90.52;102528.81;5031315;28;20435;-44
2022/03/09 02:38:30;;;;;;;30.63;28.10;;;;;;;-0.87;90.52;102531.28;5030755;28;20467;-45
2022/03/09 02:40:59;;;;;;;30.97;28.97;;;;;;;-0.82;91.10;102529.25;5035160;28;20929;-44
2022/03/09 02:43:27;;;;;;;30.80;28.80;;;;;;;-0.78;91.06;102536.03;5035413;28;20466;-47
2022/03/09 02:45:55;;;;;;;30.70;28.60;;;;;;;-0.73;91.77;102536.63;5047003;28;20471;-44
2022/03/09 02:48:22;;;;;;;29.97;28.00;;;;;;;-0.67;92.00;102540.69;5052715;28;20459;-46
2022/03/09 02:50:50;;;;;;;29.80;27.70;;;;;;;-0.64;92.30;102544.00;5055206;28;20439;-49
2022/03/09 02:53:17;;;;;;;29.80;27.63;;;;;;;-0.64;92.06;102545.78;5055164;28;20560;-50
2022/03/09 02:55:45;;;;;;;29.47;27.33;;;;;;;-0.69;91.72;102532.91;5054746;28;20431;-49
2022/03/09 02:58:14;;;;;;;29.07;27.23;;;;;;;-0.74;91.89;102540.16;5054342;28;20463;-45
2022/03/09 03:00:42;;;;;;;30.33;28.03;;;;;;;-0.75;92.36;102538.50;5054615;28;20437;-45
2022/03/09 03:03:09;;;;;;;29.90;27.67;;;;;;;-0.78;92.25;102538.66;5054840;28;20558;-47
2022/03/09 03:05:37;;;;;;;28.97;26.97;;;;;;;-0.84;92.32;102536.34;5054827;28;20477;-44
2022/03/09 03:08:05;;;;;;;30.17;27.93;;;;;;;-0.86;92.38;102542.56;5054311;28;20481;-49
2022/03/09 03:10:32;;;;;;;30.13;27.87;;;;;;;-0.91;91.81;102536.75;5054940;28;20529;-44
2022/03/09 03:13:00;;;;;;;30.20;28.03;;;;;;;-0.94;91.87;102537.75;5054352;28;21161;-48
2022/03/09 03:15:29;;;;;;;29.60;27.30;;;;;;;-0.97;92.09;102532.66;5054664;28;20525;-45
2022/03/09 03:17:56;;;;;;;30.40;28.40;;;;;;;-1.04;91.65;102533.91;5054023;28;20565;-47
2022/03/09 03:20:24;;;;;;;28.13;26.33;;;;;;;-1.14;91.27;102520.47;5054566;28;20439;-44
2022/03/09 03:22:52;;;;;;;29.60;27.60;;;;;;;-1.17;91.87;102528.47;5054363;28;20457;-47
2022/03/09 03:25:19;;;;;;;28.90;27.10;;;;;;;-1.14;92.84;102530.06;5054216;28;20474;-46
2022/03/09 03:27:50;;;;;;;31.87;29.33;;;;;;;-1.07;93.00;102533.19;5053892;28;20474;-46
2022/03/09 03:30:18;;;;;;;30.57;28.10;;;;;;;-1.02;93.53;102528.59;5054153;28;21059;-49
2022/03/09 03:32:47;;;;;;;32.97;30.20;;;;;;;-0.98;93.42;102517.03;5054415;28;20475;-49
2022/03/09 03:35:14;;;;;;;29.90;27.70;;;;;;;-0.98;93.07;102527.50;5054428;28;20509;-45
2022/03/09 03:37:42;;;;;;;29.17;27.27;;;;;;;-1.01;93.15;102518.03;5053565;28;20461;-49
2022/03/09 03:40:10;;;;;;;30.63;28.47;;;;;;;-1.01;92.87;102523.25;5054035;28;20522;-47
2022/03/09 03:42:38;;;;;;;30.73;28.43;;;;;;;-1.05;92.20;102518.28;5054282;28;20534;-45
2022/03/09 03:45:07;;;;;;;29.90;27.67;;;;;;;-1.15;91.89;102521.38;5042646;28;20432;-45
2022/03/09 03:47:35;;;;;;;28.00;26.17;;;;;;;-1.19;92.06;102518.97;5033366;28;20464;-44
2022/03/09 03:50:05;;;;;;;28.73;26.80;;;;;;;-1.29;91.83;102515.16;5033449;28;20441;-44
2022/03/09 03:52:32;;;;;;;27.20;25.30;;;;;;;-1.35;91.21;102521.53;5033957;28;20547;-44
2022/03/09 03:55:00;;;;;;;29.37;27.37;;;;;;;-1.40;91.44;102504.34;5034071;28;20523;-42
2022/03/09 03:57:28;;;;;;;29.70;27.40;;;;;;;-1.45;91.86;102503.75;5033364;28;20530;-43
2022/03/09 03:59:58;;;;;;;29.57;27.47;;;;;;;-1.48;91.58;102506.50;5033899;28;20551;-44
2022/03/09 04:02:26;;;;;;;30.50;28.43;;;;;;;-1.49;91.91;102510.88;5033938;28;20474;-44
2022/03/09 04:04:53;;;;;;;31.13;28.83;;;;;;;-1.46;92.50;102517.72;5034050;28;20799;-42
2022/03/09 04:07:22;;;;;;;30.50;28.60;;;;;;;-1.44;92.78;102516.75;5032996;28;20562;-44
2022/03/09 04:09:50;;;;;;;31.60;29.40;;;;;;;-1.40;92.79;102523.50;5033495;28;20436;-44
2022/03/09 04:12:18;;;;;;;31.30;29.00;;;;;;;-1.38;93.08;102524.31;5033518;28;20468;-45
2022/03/09 04:14:45;;;;;;;30.30;28.10;;;;;;;-1.35;93.35;102523.31;5033542;28;20432;-45
2022/03/09 04:17:13;;;;;;;31.80;29.23;;;;;;;-1.35;92.85;102518.06;5033113;28;20428;-44
2022/03/09 04:19:40;;;;;;;31.93;29.67;;;;;;;-1.35;92.93;102518.06;5033343;28;21005;-46
2022/03/09 04:22:08;;;;;;;30.67;28.53;;;;;;;-1.36;93.30;102532.06;5033432;28;20551;-46
2022/03/09 04:24:37;;;;;;;30.03;27.80;;;;;;;-1.38;92.70;102528.69;5033599;28;20428;-46
2022/03/09 04:27:06;;;;;;;31.20;29.20;;;;;;;-1.39;92.72;102532.22;5033357;28;20461;-45
2022/03/09 04:29:34;;;;;;;33.60;31.00;;;;;;;-1.46;92.73;102518.59;5033160;28;20817;-42
2022/03/09 04:32:02;;;;;;;32.77;30.10;;;;;;;-1.55;92.40;102515.59;5033297;28;20452;-45
2022/03/09 04:34:30;;;;;;;31.40;29.00;;;;;;;-1.65;92.02;102506.50;5032965;28;20440;-44
2022/03/09 04:36:58;;;;;;;30.70;28.47;;;;;;;-1.73;92.25;102499.88;5033290;28;20523;-48
2022/03/09 04:39:25;;;;;;;29.47;27.53;;;;;;;-1.79;91.95;102504.53;5032497;28;20547;-44
2022/03/09 04:41:54;;;;;;;29.83;27.83;;;;;;;-1.84;92.44;102502.16;5033158;28;20535;-44
2022/03/09 04:44:22;;;;;;;30.53;28.33;;;;;;;-1.86;92.29;102504.03;5034510;28;20436;-42
2022/03/09 04:46:50;;;;;;;31.47;29.13;;;;;;;-1.86;92.63;102509.25;5052897;28;20471;-45
2022/03/09 04:49:18;;;;;;;33.40;30.80;;;;;;;-1.81;93.09;102507.25;5052102;28;20866;-47
2022/03/09 04:51:45;;;;;;;34.23;31.63;;;;;;;-1.69;94.25;102513.66;5052852;28;20451;-46
2022/03/09 04:54:13;;;;;;;34.03;31.43;;;;;;;-1.56;95.00;102516.53;5052576;28;20945;-47
2022/03/09 04:56:40;;;;;;;34.80;32.30;;;;;;;-1.45;95.36;102507.22;5052689;28;20510;-44
2022/03/09 04:59:14;;;;;;;32.17;30.17;;;;;;;-1.36;95.35;102513.75;5051929;28;20463;-46
2022/03/09 05:01:42;;;;;;;34.47;31.87;;;;;;;-1.32;95.36;102523.16;5052060;28;20451;-44
2022/03/09 05:04:10;;;;;;;31.57;29.07;;;;;;;-1.31;95.59;102520.44;5052690;28;20790;-42
2022/03/09 05:06:37;;;;;;;31.00;28.60;;;;;;;-1.36;94.78;102519.84;5052466;28;20475;-42
2022/03/09 05:09:06;;;;;;;31.83;29.30;;;;;;;-1.40;94.63;102525.28;5051690;28;20491;-43
2022/03/09 05:11:37;;;;;;;30.57;28.03;;;;;;;-1.45;95.06;102522.06;5051991;28;20502;-45
2022/03/09 05:14:05;;;;;;;32.30;29.70;;;;;;;-1.46;95.22;102522.97;5052060;28;20927;-45
2022/03/09 05:16:35;;;;;;;32.57;30.33;;;;;;;-1.49;94.77;102537.06;5052497;28;20427;-42
2022/03/09 05:19:03;;;;;;;33.87;31.37;;;;;;;-1.48;95.02;102528.28;5051119;28;20491;-44
2022/03/09 05:21:31;;;;;;;33.47;30.93;;;;;;;-1.50;95.10;102530.16;5052109;28;20478;-45
2022/03/09 05:23:58;;;;;;;31.87;29.77;;;;;;;-1.53;95.44;102524.22;5052408;28;20860;-44
2022/03/09 05:26:26;;;;;;;32.40;30.00;;;;;;;-1.60;94.47;102518.44;5052128;28;20475;-42
2022/03/09 05:28:56;;;;;;;33.83;31.43;;;;;;;-1.67;94.80;102526.66;5051550;28;21083;-44
2022/03/09 05:31:24;;;;;;;32.67;30.23;;;;;;;-1.75;94.71;102522.66;5052100;28;20542;-49
2022/03/09 05:33:53;;;;;;;32.73;30.73;;;;;;;-1.73;95.15;102522.56;5051823;28;20443;-43
2022/03/09 05:36:21;;;;;;;31.03;28.60;;;;;;;-1.69;95.84;102535.44;5051818;28;20442;-45
2022/03/09 05:38:49;;;;;;;34.03;30.90;;;;;;;-1.63;96.56;102531.66;5051262;28;20477;-45
2022/03/09 05:41:16;;;;;;;33.33;30.83;;;;;;;-1.58;96.51;102531.44;5051586;28;20990;-47
2022/03/09 05:43:44;;;;;;;32.10;30.10;;;;;;;-1.58;96.13;102528.84;5052101;28;20797;-43
2022/03/09 05:46:11;;;;;;;32.27;29.50;;;;;;;-1.58;95.88;102529.66;5043336;28;20432;-45
2022/03/09 05:48:39;;;;;;;32.77;30.20;;;;;;;-1.61;95.78;102536.84;5051210;28;20487;-47
2022/03/09 05:51:08;;;;;;;31.20;28.93;;;;;;;-1.66;95.20;102539.66;5051584;28;20435;-46
2022/03/09 05:53:36;;;;;;;31.60;29.50;;;;;;;-1.67;95.09;102544.03;5051515;28;20924;-45
2022/03/09 05:56:04;;;;;;;31.23;29.13;;;;;;;-1.66;95.63;102544.88;5051889;28;20439;-45
2022/03/09 05:58:32;;;;;;;32.30;29.97;;;;;;;-1.67;94.84;102544.97;5051097;28;20467;-45
2022/03/09 06:00:59;;;;;;;31.40;29.20;;;;;;;-1.72;94.48;102532.97;5051592;28;20431;-44
2022/03/09 06:03:27;;;;;;;32.20;29.97;;;;;;;-1.71;94.75;102536.44;5051713;28;20494;-44
2022/03/09 06:05:55;;;;;;;30.60;28.57;;;;;;;-1.69;95.21;102542.41;5051801;28;20438;-44
2022/03/09 06:08:24;;;;;;;31.80;29.70;;;;;;;-1.62;95.88;102540.34;5050896;28;20462;-46
2022/03/09 06:10:52;;;;;;;31.30;29.10;;;;;;;-1.53;96.04;102543.38;5051338;28;20434;-42
2022/03/09 06:13:19;;;;;;;29.87;27.87;;;;;;;-1.50;95.05;102540.63;5052728;28;20473;-45
2022/03/09 06:15:50;;;;;;;33.17;30.87;;;;;;;-1.08;96.66;102548.09;5055550;28;20438;-46
2022/03/09 06:18:18;;;;;;;31.27;29.20;;;;;;;-0.29;98.00;102554.38;5054972;28;20550;-47
2022/03/09 06:20:45;;;;;;;33.07;30.77;;;;;;;0.52;97.55;102557.66;5055747;28;20530;-46
2022/03/09 06:23:14;;;;;;;30.90;28.83;;;;;;;1.32;96.78;102557.28;5055597;28;20462;-45
2022/03/09 06:25:43;;;;;;;28.43;26.43;;;;;;;1.97;97.43;102552.38;5055228;28;20526;-45
2022/03/09 06:28:11;;;;;;;27.50;25.63;;;;;;;2.52;97.71;102553.13;5054778;28;20558;-45
2022/03/09 06:30:38;;;;;;;26.27;24.40;;;;;;;3.05;98.11;102551.31;5055209;28;20433;-47
2022/03/09 06:33:06;;;;;;;25.77;24.03;;;;;;;3.33;95.46;102556.41;5055431;28;20534;-44
2022/03/09 06:35:34;;;;;;;26.60;24.90;;;;;;;3.57;95.62;102557.34;5055489;28;20490;-44
2022/03/09 06:38:02;;;;;;;25.97;24.20;;;;;;;3.60;93.56;102551.84;5054798;28;20473;-44
2022/03/09 06:40:29;;;;;;;26.27;24.50;;;;;;;3.35;89.56;102552.69;5055042;28;20900;-47
2022/03/09 06:43:00;;;;;;;26.00;24.13;;;;;;;3.02;85.89;102551.53;5055060;28;20463;-46
2022/03/09 06:45:28;;;;;;;26.47;24.67;;;;;;;2.72;83.15;102551.78;5054926;28;20994;-47
2022/03/09 06:47:56;;;;;;;26.23;24.60;;;;;;;2.94;83.04;102552.06;5039679;28;20460;-45
2022/03/09 06:50:24;;;;;;;27.80;26.10;;;;;;;3.41;85.04;102561.13;5035310;28;20559;-45
2022/03/09 06:52:51;;;;;;;34.00;31.23;;;;;;;3.77;87.29;102559.41;5035107;28;20459;-45
2022/03/09 06:55:19;;;;;;;29.67;27.67;;;;;;;4.00;86.68;102556.94;5035062;28;20439;-45
2022/03/09 06:57:47;;;;;;;27.53;25.93;;;;;;;4.17;85.24;102553.94;5034448;28;20463;-48
2022/03/09 07:00:19;;;;;;;25.50;23.97;;;;;;;4.28;84.32;102559.25;5034851;28;20951;-46
2022/03/09 07:02:47;;;;;;;27.13;25.30;;;;;;;4.32;82.55;102564.22;5034746;28;20547;-47
2022/03/09 07:05:16;;;;;;;26.37;24.53;;;;;;;4.35;80.49;102568.44;5034809;28;20972;-45
2022/03/09 07:07:44;;;;;;;26.53;24.70;;;;;;;4.30;78.70;102566.13;5034186;28;20462;-45
2022/03/09 07:10:13;;;;;;;25.50;23.90;;;;;;;4.24;77.87;102571.84;5034934;28;20793;-48
2022/03/09 07:12:43;;;;;;;26.03;24.43;;;;;;;4.18;76.58;102571.47;5058033;22;20545;-48
2022/03/09 07:15:11;;;;;;;27.40;25.30;;;;;;;4.07;76.16;102569.59;5054614;28;20546;-45
2022/03/09 07:17:40;;;;;;;26.50;25.00;;;;;;;3.93;75.30;102567.09;5053678;28;20466;-48
2022/03/09 07:20:09;;;;;;;26.37;24.70;;;;;;;3.78;75.06;102563.75;5054606;28;20467;-46
2022/03/09 07:22:39;;;;;;;26.43;24.73;;;;;;;3.68;75.10;102559.22;5054323;28;20897;-45
2022/03/09 07:25:07;;;;;;;26.00;24.40;;;;;;;3.66;75.50;102574.31;5053668;28;20435;-45
2022/03/09 07:27:35;;;;;;;24.57;23.30;;;;;;;3.70;75.84;102570.53;5053656;28;20459;-43
2022/03/09 07:30:03;;;;;;;29.03;27.10;;;;;;;3.82;75.94;102570.47;5054466;28;20522;-49
2022/03/09 07:32:31;;;;;;;30.30;28.27;;;;;;;3.95;76.00;102570.47;5054307;28;20474;-44
2022/03/09 07:35:20;;;;;;;27.03;25.33;;;;;;;4.14;77.30;102567.34;5054492;28;20438;-44
2022/03/09 07:37:50;;;;;;;28.57;26.77;;;;;;;4.44;79.49;102565.97;5053287;28;20684;-44
2022/03/09 07:40:17;;;;;;;26.07;24.50;;;;;;;4.74;81.13;102567.28;5054304;28;20431;-46
2022/03/09 07:42:45;;;;;;;25.93;24.30;;;;;;;5.06;82.79;102570.16;5053939;28;20534;-43
2022/03/09 07:45:13;;;;;;;26.97;25.40;;;;;;;5.24;78.06;102566.94;5054081;28;20431;-44
2022/03/09 07:47:41;;;;;;;25.90;24.40;;;;;;;5.47;76.13;102568.66;5053218;28;20486;-46
2022/03/09 07:50:09;;;;;;;27.30;25.50;;;;;;;5.63;74.02;102578.06;5053995;28;20868;-47
2022/03/09 07:52:39;;;;;;;25.10;23.70;;;;;;;5.71;72.21;102576.47;5053727;28;20455;-44
2022/03/09 07:55:07;;;;;;;26.07;24.47;;;;;;;5.58;70.13;102589.81;5054042;28;20518;-44
2022/03/09 07:57:35;;;;;;;26.70;24.97;;;;;;;5.51;69.53;102593.09;5053016;28;20459;-45
2022/03/09 08:00:06;;;;;;;24.67;23.37;;;;;;;5.45;69.08;102597.06;5053833;28;20509;-46
2022/03/09 08:02:33;;;;;;;25.63;24.17;;;;;;;5.34;70.14;102602.34;5053551;28;20459;-43
2022/03/09 08:05:03;;;;;;;26.40;24.87;;;;;;;5.25;70.94;102596.91;5053565;28;20526;-45
2022/03/09 08:07:30;;;;;;;28.60;26.90;;;;;;;5.11;71.18;102602.41;5052811;28;20530;-43
2022/03/09 08:09:59;;;;;;;28.17;26.37;;;;;;;5.00;72.09;102601.41;5053631;28;20489;-44
2022/03/09 08:12:28;;;;;;;28.43;26.77;;;;;;;4.89;72.84;102606.66;5053335;28;20546;-48
2022/03/09 08:14:56;;;;;;;29.40;27.60;;;;;;;4.88;74.63;102612.03;5053554;28;20529;-44
2022/03/09 08:17:23;;;;;;;29.13;27.30;;;;;;;4.85;74.79;102601.69;5052532;28;20534;-44
2022/03/09 08:19:56;;;;;;;28.70;27.10;;;;;;;4.77;75.63;102606.72;5053335;28;20474;-45
2022/03/09 08:22:24;;;;;;;27.83;26.20;;;;;;;4.69;76.77;102619.66;5053324;28;20459;-43
2022/03/09 08:24:51;;;;;;;26.60;25.20;;;;;;;4.69;77.32;102615.19;5053471;28;20522;-44
2022/03/09 08:27:20;;;;;;;27.27;25.70;;;;;;;4.80;77.80;102614.41;5052466;28;20431;-43
2022/03/09 08:29:50;;;;;;;27.47;25.77;;;;;;;4.64;77.30;102627.91;5053030;28;20474;-44
2022/03/09 08:32:18;;;;;;;27.60;26.10;;;;;;;4.78;77.93;102629.56;5053211;28;20551;-43
2022/03/09 08:34:46;;;;;;;26.20;24.70;;;;;;;4.84;77.52;102624.63;5053235;28;20443;-45
2022/03/09 08:37:15;;;;;;;27.80;26.10;;;;;;;4.88;76.98;102626.09;5051298;28;20427;-44
2022/03/09 08:39:43;;;;;;;26.67;24.93;;;;;;;4.83;76.09;102620.31;5053018;28;20427;-43
2022/03/09 08:42:15;;;;;;;26.47;24.57;;;;;;;4.96;77.33;102625.50;5052882;28;20460;-44
2022/03/09 08:44:44;;;;;;;27.97;26.27;;;;;;;5.01;76.34;102628.69;5052778;28;20522;-44
2022/03/09 08:47:12;;;;;;;27.50;25.90;;;;;;;4.94;76.60;102620.34;5052252;28;20510;-43
2022/03/09 08:49:40;;;;;;;25.83;24.43;;;;;;;4.89;76.96;102629.59;5052649;28;21056;-44
2022/03/09 08:52:08;;;;;;;26.20;24.80;;;;;;;5.15;77.18;102625.84;5052736;28;20455;-48
2022/03/09 08:54:36;;;;;;;24.83;23.03;;;;;;;5.37;77.45;102625.91;5052636;28;20443;-46
2022/03/09 08:57:04;;;;;;;24.10;22.50;;;;;;;5.50;75.31;102628.44;5052625;28;20441;-44
2022/03/09 08:59:32;;;;;;;23.43;21.93;;;;;;;5.69;74.31;102620.78;5051807;28;20530;-46
2022/03/09 09:02:01;;;;;;;24.23;22.60;;;;;;;5.79;72.80;102613.81;5052655;28;20477;-44
2022/03/09 09:04:29;;;;;;;23.93;22.50;;;;;;;5.78;72.82;102622.69;5052589;28;20438;-46
2022/03/09 09:06:57;;;;;;;25.40;23.90;;;;;;;5.93;72.49;102616.25;5052552;28;20556;-44
2022/03/09 09:09:24;;;;;;;24.40;22.97;;;;;;;6.00;71.18;102619.25;5051561;28;21053;-47
2022/03/09 09:11:54;;;;;;;23.43;22.00;;;;;;;6.04;68.22;102615.38;5052364;28;20466;-44
2022/03/09 09:14:21;;;;;;;24.67;23.23;;;;;;;6.14;69.34;102613.69;5052389;28;20478;-45
2022/03/09 09:16:49;;;;;;;20.70;19.80;;;;;;;6.35;68.27;102609.31;5052371;28;20474;-46
2022/03/09 09:19:19;;;;;;;16.10;15.30;;;;;;;6.69;68.10;102612.69;5051557;28;20463;-45
2022/03/09 09:21:47;;;;;;;9.20;8.50;;;;;;;6.93;66.25;102618.63;5052030;28;20432;-48
2022/03/09 09:24:15;;;;;;;9.70;9.00;;;;;;;7.13;62.71;102620.50;5052115;28;20435;-47
2022/03/09 09:26:44;;;;;;;12.40;11.40;;;;;;;7.13;63.29;102622.28;5052296;28;20766;-46
2022/03/09 09:29:16;;;;;;;11.27;10.47;;;;;;;7.11;61.29;102614.44;5051270;28;20883;-48
2022/03/09 09:31:45;;;;;;;11.20;10.50;;;;;;;7.19;60.90;102619.13;5052056;28;20431;-44
2022/03/09 09:34:13;;;;;;;10.47;9.37;;;;;;;7.10;58.60;102623.41;5052018;28;20441;-46
2022/03/09 09:36:45;;;;;;;10.27;9.57;;;;;;;7.24;60.76;102628.38;5051880;28;20435;-48
2022/03/09 09:39:14;;;;;;;9.50;8.70;;;;;;;7.21;58.02;102619.84;5051299;28;20827;-45
2022/03/09 09:41:43;;;;;;;9.63;8.83;;;;;;;7.28;56.80;102622.81;5052009;28;20497;-46
2022/03/09 09:44:12;;;;;;;10.10;9.30;;;;;;;7.35;58.34;102630.13;5051844;28;20431;-45
2022/03/09 09:46:41;;;;;;;10.70;9.80;;;;;;;7.34;59.99;102631.09;5051695;28;20431;-47
2022/03/09 09:49:10;;;;;;;13.90;12.93;;;;;;;7.34;63.10;102624.94;5050631;28;20475;-44
2022/03/09 09:51:38;;;;;;;11.17;10.13;;;;;;;7.42;60.83;102622.47;5051848;28;20431;-44
2022/03/09 09:54:07;;;;;;;11.73;10.93;;;;;;;7.16;63.96;102622.03;5051855;28;20465;-47
2022/03/09 09:56:37;;;;;;;13.33;12.40;;;;;;;7.27;65.23;102619.31;5051864;28;20526;-47
2022/03/09 09:59:06;;;;;;;15.53;14.50;;;;;;;7.21;67.05;102627.78;5050927;28;20454;-44
2022/03/09 10:01:35;;;;;;;13.97;12.93;;;;;;;7.28;64.95;102625.47;5051501;28;20438;-46
2022/03/09 10:04:03;;;;;;;12.20;11.47;;;;;;;7.49;64.65;102621.00;5051826;28;20526;-48
2022/03/09 10:06:31;;;;;;;11.63;10.93;;;;;;;7.47;62.31;102625.56;5051747;28;20439;-45
2022/03/09 10:09:05;;;;;;;11.30;10.37;;;;;;;7.38;63.27;102627.19;5050741;28;20482;-45
2022/03/09 10:11:48;;;;;;;11.30;10.50;;;;;;;7.69;63.40;102620.97;5051704;28;20427;-46
2022/03/09 10:14:19;;;;;;;9.73;8.73;;;;;;;7.79;59.42;102621.03;5051496;28;20518;-44
2022/03/09 10:17:01;;;;;;;9.90;9.20;;;;;;;7.88;57.48;102617.56;5051675;28;20856;-44
2022/03/09 10:19:30;;;;;;;9.97;9.07;;;;;;;8.11;59.02;102613.72;5050753;28;20459;-46
2022/03/09 10:22:20;;;;;;;9.00;8.20;;;;;;;8.11;58.38;102612.88;5051499;28;20502;-44
2022/03/09 10:25:19;;;;;;;9.57;8.97;;;;;;;8.14;59.18;102601.97;5051609;28;20438;-45
2022/03/09 10:27:49;;;;;;;9.90;9.20;;;;;;;8.14;60.26;102609.97;5050841;28;20469;-44
2022/03/09 10:30:18;;;;;;;8.70;8.00;;;;;;;8.28;59.60;102612.25;5051355;28;20987;-46
2022/03/09 10:32:49;;;;;;;8.83;8.03;;;;;;;8.32;56.14;102609.22;5051168;28;21044;-46
2022/03/09 10:35:19;;;;;;;8.90;8.23;;;;;;;8.40;56.36;102607.66;5051205;28;20530;-46
2022/03/09 10:37:49;;;;;;;8.83;7.93;;;;;;;8.33;56.48;102608.22;5050835;28;20466;-46
2022/03/09 10:40:19;;;;;;;9.07;8.37;;;;;;;8.38;56.59;102606.97;5051330;28;20489;-47
2022/03/09 10:42:48;;;;;;;10.03;9.10;;;;;;;8.50;57.55;102611.19;5051275;28;20550;-45
2022/03/09 10:45:18;;;;;;;9.00;8.30;;;;;;;8.57;57.47;102610.50;5050903;28;20518;-47
2022/03/09 10:47:46;;;;;;;9.30;8.60;;;;;;;8.69;56.80;102609.38;5050369;28;20542;-44
2022/03/09 10:50:17;;;;;;;9.00;8.30;;;;;;;8.72;58.38;102609.09;5051036;28;20470;-45
2022/03/09 10:52:48;;;;;;;9.90;9.00;;;;;;;8.49;59.17;102620.13;5051056;28;20549;-44
2022/03/09 10:55:24;;;;;;;10.63;9.83;;;;;;;8.61;58.95;102622.53;5051135;28;20459;-44
2022/03/09 10:58:07;;;;;;;11.33;9.97;;;;;;;8.48;59.87;102611.34;5050458;28;20881;-47
2022/03/09 11:00:36;;;;;;;10.43;9.50;;;;;;;8.48;59.00;102614.00;5052988;28;20517;-46
2022/03/09 11:03:08;;;;;;;9.40;8.77;;;;;;;8.39;58.07;102619.28;5054741;28;20469;-45
2022/03/09 11:05:37;;;;;;;11.23;10.17;;;;;;;8.71;60.24;102611.91;5054856;28;20435;-45
2022/03/09 11:08:05;;;;;;;9.97;8.93;;;;;;;8.67;57.89;102616.66;5053748;28;20550;-46
2022/03/09 11:10:33;;;;;;;10.50;9.70;;;;;;;8.94;56.76;102617.78;5054584;28;21063;-45
2022/03/09 11:13:02;;;;;;;9.17;8.27;;;;;;;9.32;54.93;102607.09;5054495;28;20459;-46
2022/03/09 11:15:30;;;;;;;8.13;7.53;;;;;;;9.62;47.67;102614.03;5054567;28;20478;-45
2022/03/09 11:17:58;;;;;;;9.73;7.40;;;;;;;9.92;49.28;102609.31;5053868;28;20987;-44
2022/03/09 11:20:26;;;;;;;9.37;8.43;;;;;;;10.13;44.95;102601.09;5054496;28;20827;-49
2022/03/09 11:22:54;;;;;;;7.77;6.97;;;;;;;10.34;45.58;102599.00;5054278;28;20463;-45